Lamard, Illinois
Current Conditions -  °F | °C
As of 12:55 AM on Thursday 23 Oct 2014 (Local Time) from KFWC Reporting Station
Clear Clear  
Wind Chill: 41°   Ceiling: Unl
Heat Index: 41°   Visibility: 10mi
Dew Point: 40°   Wind: 0mph
Humidity: 95%   Direction: NA
Pressure: 30.24"   Gusts: NA
Location:  38.4399°N, 88.4246°W
Report Text: KFWC 230555Z AUTO 00000KT 10SM CLR 05/04 A3024 RMK AO1 T00500043 10081 20034 401660034
Loading
Personal Weather Stations






























Interactive Weather Map
Tropical Storm Tracking
New forecast layout! Learn more

10-Day Weather Forecast

Advertisements
Track Severe Weather on mobile